Terminal Aerodrome Forecast
Issued by NWS

Home | Current Version | Previous Version | Graphics & Text | Print | Product List | Glossary On
Versions: 1 2 3 4 5 6 7 8 9 10 11 12 13 14 15 16 17 18
468
FTUS43 KIWX 101739
TAFSBN
TAF
KSBN 101739Z 1018/1118 24014G20KT P6SM BKN020
     FM102100 30010KT P6SM OVC020
     FM110700 23003KT P6SM BKN020
     FM111500 19010KT P6SM SCT020 OVC080
      TEMPO 1115/1118 3SM -SN OVC020=

USA.gov is the U.S. government's official web portal to all federal, state and local government web resources and services.